sensor_id;sensor_type;location;lat;lon;timestamp;temperature;humidity
68248;SHT30;55064;49.636;12.164;2024-02-14T00:01:48;0.11;99.45
68248;SHT30;55064;49.636;12.164;2024-02-14T00:04:14;0.15;99.10
68248;SHT30;55064;49.636;12.164;2024-02-14T00:06:39;0.11;99.23
68248;SHT30;55064;49.636;12.164;2024-02-14T00:09:05;-0.02;99.27
68248;SHT30;55064;49.636;12.164;2024-02-14T00:11:32;0.00;99.23
68248;SHT30;55064;49.636;12.164;2024-02-14T00:13:57;0.08;99.34
68248;SHT30;55064;49.636;12.164;2024-02-14T00:16:24;-0.02;99.50
68248;SHT30;55064;49.636;12.164;2024-02-14T00:18:49;-0.07;99.60
68248;SHT30;55064;49.636;12.164;2024-02-14T00:21:16;-0.10;99.73
68248;SHT30;55064;49.636;12.164;2024-02-14T00:23:41;-0.10;99.81
68248;SHT30;55064;49.636;12.164;2024-02-14T00:26:06;-0.14;99.99
68248;SHT30;55064;49.636;12.164;2024-02-14T00:28:32;-0.10;99.99
68248;SHT30;55064;49.636;12.164;2024-02-14T00:30:58;0.03;99.99
68248;SHT30;55064;49.636;12.164;2024-02-14T00:33:23;0.12;99.99
68248;SHT30;55064;49.636;12.164;2024-02-14T00:35:49;0.11;99.83
68248;SHT30;55064;49.636;12.164;2024-02-14T00:38:14;0.17;99.63
68248;SHT30;55064;49.636;12.164;2024-02-14T00:40:39;0.12;99.29
68248;SHT30;55064;49.636;12.164;2024-02-14T00:43:05;0.14;99.10
68248;SHT30;55064;49.636;12.164;2024-02-14T00:45:30;0.15;99.04
68248;SHT30;55064;49.636;12.164;2024-02-14T00:47:55;0.12;99.15
68248;SHT30;55064;49.636;12.164;2024-02-14T00:50:21;0.19;98.89
68248;SHT30;55064;49.636;12.164;2024-02-14T00:52:46;0.22;98.72
68248;SHT30;55064;49.636;12.164;2024-02-14T00:55:12;0.21;98.71
68248;SHT30;55064;49.636;12.164;2024-02-14T00:57:38;0.25;98.63
68248;SHT30;55064;49.636;12.164;2024-02-14T01:00:05;0.24;98.82
68248;SHT30;55064;49.636;12.164;2024-02-14T01:02:31;0.25;98.65
68248;SHT30;55064;49.636;12.164;2024-02-14T01:04:57;0.25;98.73
68248;SHT30;55064;49.636;12.164;2024-02-14T01:07:22;0.25;98.50
68248;SHT30;55064;49.636;12.164;2024-02-14T01:09:48;0.26;98.62
68248;SHT30;55064;49.636;12.164;2024-02-14T01:12:13;0.28;98.54
68248;SHT30;55064;49.636;12.164;2024-02-14T01:14:38;0.32;98.60
68248;SHT30;55064;49.636;12.164;2024-02-14T01:17:04;0.37;97.86
68248;SHT30;55064;49.636;12.164;2024-02-14T01:19:29;0.33;97.78
68248;SHT30;55064;49.636;12.164;2024-02-14T01:21:57;0.29;97.79
68248;SHT30;55064;49.636;12.164;2024-02-14T01:24:23;0.22;98.28
68248;SHT30;55064;49.636;12.164;2024-02-14T01:26:52;0.25;98.95
68248;SHT30;55064;49.636;12.164;2024-02-14T01:29:18;0.25;99.03
68248;SHT30;55064;49.636;12.164;2024-02-14T01:31:44;0.26;98.96
68248;SHT30;55064;49.636;12.164;2024-02-14T01:34:10;0.25;99.01
68248;SHT30;55064;49.636;12.164;2024-02-14T01:36:35;0.26;99.08
68248;SHT30;55064;49.636;12.164;2024-02-14T01:39:00;0.28;99.09
68248;SHT30;55064;49.636;12.164;2024-02-14T01:41:26;0.29;99.03
68248;SHT30;55064;49.636;12.164;2024-02-14T01:43:51;0.32;99.25
68248;SHT30;55064;49.636;12.164;2024-02-14T01:46:17;0.29;99.75
68248;SHT30;55064;49.636;12.164;2024-02-14T01:48:42;0.29;99.99
68248;SHT30;55064;49.636;12.164;2024-02-14T01:51:10;0.35;99.99
68248;SHT30;55064;49.636;12.164;2024-02-14T01:53:37;0.39;99.99
68248;SHT30;55064;49.636;12.164;2024-02-14T01:56:03;0.39;99.99
68248;SHT30;55064;49.636;12.164;2024-02-14T01:58:30;0.39;99.99
68248;SHT30;55064;49.636;12.164;2024-02-14T02:00:56;0.37;99.99
68248;SHT30;55064;49.636;12.164;2024-02-14T02:03:24;0.41;99.99
68248;SHT30;55064;49.636;12.164;2024-02-14T02:05:53;0.38;99.99
68248;SHT30;55064;49.636;12.164;2024-02-14T02:08:20;0.39;99.81
68248;SHT30;55064;49.636;12.164;2024-02-14T02:10:46;0.38;99.56
68248;SHT30;55064;49.636;12.164;2024-02-14T02:13:12;0.37;99.49
68248;SHT30;55064;49.636;12.164;2024-02-14T02:15:37;0.35;99.95
68248;SHT30;55064;49.636;12.164;2024-02-14T02:18:04;0.35;99.99
68248;SHT30;55064;49.636;12.164;2024-02-14T02:20:34;0.41;99.99
68248;SHT30;55064;49.636;12.164;2024-02-14T02:22:59;0.41;99.99
68248;SHT30;55064;49.636;12.164;2024-02-14T02:25:25;0.41;99.99
68248;SHT30;55064;49.636;12.164;2024-02-14T02:27:54;0.41;99.99
68248;SHT30;55064;49.636;12.164;2024-02-14T02:30:23;0.38;99.99
68248;SHT30;55064;49.636;12.164;2024-02-14T02:32:49;0.42;99.99
68248;SHT30;55064;49.636;12.164;2024-02-14T02:35:16;0.42;99.99
68248;SHT30;55064;49.636;12.164;2024-02-14T02:37:42;0.38;99.99
68248;SHT30;55064;49.636;12.164;2024-02-14T02:40:10;0.45;99.99
68248;SHT30;55064;49.636;12.164;2024-02-14T02:42:38;0.48;99.99
68248;SHT30;55064;49.636;12.164;2024-02-14T02:45:03;0.55;99.99
68248;SHT30;55064;49.636;12.164;2024-02-14T02:47:31;0.50;99.99
68248;SHT30;55064;49.636;12.164;2024-02-14T02:49:58;0.46;99.99
68248;SHT30;55064;49.636;12.164;2024-02-14T02:52:26;0.55;99.99
68248;SHT30;55064;49.636;12.164;2024-02-14T02:54:53;0.53;99.99
68248;SHT30;55064;49.636;12.164;2024-02-14T02:57:19;0.55;99.99
68248;SHT30;55064;49.636;12.164;2024-02-14T02:59:44;0.59;99.99
68248;SHT30;55064;49.636;12.164;2024-02-14T03:02:12;0.62;99.99
68248;SHT30;55064;49.636;12.164;2024-02-14T03:04:38;0.66;99.99
68248;SHT30;55064;49.636;12.164;2024-02-14T03:07:04;0.67;99.99
68248;SHT30;55064;49.636;12.164;2024-02-14T03:09:29;0.67;99.99
68248;SHT30;55064;49.636;12.164;2024-02-14T03:11:54;0.72;99.99
68248;SHT30;55064;49.636;12.164;2024-02-14T03:14:22;0.72;99.99
68248;SHT30;55064;49.636;12.164;2024-02-14T03:16:47;0.73;99.99
68248;SHT30;55064;49.636;12.164;2024-02-14T03:19:12;0.63;99.99
68248;SHT30;55064;49.636;12.164;2024-02-14T03:21:38;0.59;99.99
68248;SHT30;55064;49.636;12.164;2024-02-14T03:24:04;0.59;99.99
68248;SHT30;55064;49.636;12.164;2024-02-14T03:26:31;0.53;99.99
68248;SHT30;55064;49.636;12.164;2024-02-14T03:28:59;0.52;99.99
68248;SHT30;55064;49.636;12.164;2024-02-14T03:31:24;0.55;99.99
68248;SHT30;55064;49.636;12.164;2024-02-14T03:33:51;0.59;99.99
68248;SHT30;55064;49.636;12.164;2024-02-14T03:36:16;0.65;99.99
68248;SHT30;55064;49.636;12.164;2024-02-14T03:38:42;0.69;99.99
68248;SHT30;55064;49.636;12.164;2024-02-14T03:41:07;0.72;99.99
68248;SHT30;55064;49.636;12.164;2024-02-14T03:43:33;0.75;99.99
68248;SHT30;55064;49.636;12.164;2024-02-14T03:45:58;0.77;99.99
68248;SHT30;55064;49.636;12.164;2024-02-14T03:48:24;0.80;99.99
68248;SHT30;55064;49.636;12.164;2024-02-14T03:50:49;0.79;99.99
68248;SHT30;55064;49.636;12.164;2024-02-14T03:53:14;0.84;99.99
68248;SHT30;55064;49.636;12.164;2024-02-14T03:55:40;0.90;99.99
68248;SHT30;55064;49.636;12.164;2024-02-14T03:58:06;0.90;99.99
68248;SHT30;55064;49.636;12.164;2024-02-14T04:00:33;0.91;99.99
68248;SHT30;55064;49.636;12.164;2024-02-14T04:03:00;1.08;99.99
68248;SHT30;55064;49.636;12.164;2024-02-14T04:05:27;1.15;99.99
68248;SHT30;55064;49.636;12.164;2024-02-14T04:07:56;1.20;99.99
68248;SHT30;55064;49.636;12.164;2024-02-14T04:10:22;1.25;99.99
68248;SHT30;55064;49.636;12.164;2024-02-14T04:12:47;1.13;99.99
68248;SHT30;55064;49.636;12.164;2024-02-14T04:15:13;1.14;99.99
68248;SHT30;55064;49.636;12.164;2024-02-14T04:17:42;1.15;99.99
68248;SHT30;55064;49.636;12.164;2024-02-14T04:20:07;1.18;99.99
68248;SHT30;55064;49.636;12.164;2024-02-14T04:22:33;1.17;99.99
68248;SHT30;55064;49.636;12.164;2024-02-14T04:24:58;1.14;99.99
68248;SHT30;55064;49.636;12.164;2024-02-14T04:27:24;1.05;99.99
68248;SHT30;55064;49.636;12.164;2024-02-14T04:29:50;1.17;99.99
68248;SHT30;55064;49.636;12.164;2024-02-14T04:32:15;1.22;99.99
68248;SHT30;55064;49.636;12.164;2024-02-14T04:34:40;1.18;99.99
68248;SHT30;55064;49.636;12.164;2024-02-14T04:37:07;1.15;99.99
68248;SHT30;55064;49.636;12.164;2024-02-14T04:39:39;1.14;99.99
68248;SHT30;55064;49.636;12.164;2024-02-14T04:42:04;1.15;99.99
68248;SHT30;55064;49.636;12.164;2024-02-14T04:44:30;1.13;99.99
68248;SHT30;55064;49.636;12.164;2024-02-14T04:46:57;1.07;99.99
68248;SHT30;55064;49.636;12.164;2024-02-14T04:49:24;1.07;99.99
68248;SHT30;55064;49.636;12.164;2024-02-14T04:51:50;1.08;99.99
68248;SHT30;55064;49.636;12.164;2024-02-14T04:54:16;1.11;99.99
68248;SHT30;55064;49.636;12.164;2024-02-14T04:56:41;1.15;99.99
68248;SHT30;55064;49.636;12.164;2024-02-14T04:59:07;1.21;99.99
68248;SHT30;55064;49.636;12.164;2024-02-14T05:01:34;1.20;99.99
68248;SHT30;55064;49.636;12.164;2024-02-14T05:04:00;1.17;99.99
68248;SHT30;55064;49.636;12.164;2024-02-14T05:06:25;1.15;99.99
68248;SHT30;55064;49.636;12.164;2024-02-14T05:08:51;1.15;99.99
68248;SHT30;55064;49.636;12.164;2024-02-14T05:11:19;1.15;99.99
68248;SHT30;55064;49.636;12.164;2024-02-14T05:13:44;1.18;99.99
68248;SHT30;55064;49.636;12.164;2024-02-14T05:16:11;1.30;99.99
68248;SHT30;55064;49.636;12.164;2024-02-14T05:18:37;1.31;99.99
68248;SHT30;55064;49.636;12.164;2024-02-14T05:21:07;1.38;99.99
68248;SHT30;55064;49.636;12.164;2024-02-14T05:23:33;1.70;99.99
68248;SHT30;55064;49.636;12.164;2024-02-14T05:26:00;1.76;99.99
68248;SHT30;55064;49.636;12.164;2024-02-14T05:28:28;1.86;99.99
68248;SHT30;55064;49.636;12.164;2024-02-14T05:30:53;1.91;99.99
68248;SHT30;55064;49.636;12.164;2024-02-14T05:33:18;1.93;99.99
68248;SHT30;55064;49.636;12.164;2024-02-14T05:35:47;1.94;99.99
68248;SHT30;55064;49.636;12.164;2024-02-14T05:38:12;1.98;99.99
68248;SHT30;55064;49.636;12.164;2024-02-14T05:40:38;1.96;99.99
68248;SHT30;55064;49.636;12.164;2024-02-14T05:43:04;1.97;99.99
68248;SHT30;55064;49.636;12.164;2024-02-14T05:45:30;1.93;99.99
68248;SHT30;55064;49.636;12.164;2024-02-14T05:47:55;1.87;99.99
68248;SHT30;55064;49.636;12.164;2024-02-14T05:50:20;1.83;99.99
68248;SHT30;55064;49.636;12.164;2024-02-14T05:52:46;1.87;99.99
68248;SHT30;55064;49.636;12.164;2024-02-14T05:55:11;1.84;99.99
68248;SHT30;55064;49.636;12.164;2024-02-14T05:57:36;1.83;99.99
68248;SHT30;55064;49.636;12.164;2024-02-14T06:00:02;1.90;99.99
68248;SHT30;55064;49.636;12.164;2024-02-14T06:02:28;2.03;99.51
68248;SHT30;55064;49.636;12.164;2024-02-14T06:04:54;2.08;99.69
68248;SHT30;55064;49.636;12.164;2024-02-14T06:07:19;2.08;99.71
68248;SHT30;55064;49.636;12.164;2024-02-14T06:09:44;2.11;99.54
68248;SHT30;55064;49.636;12.164;2024-02-14T06:12:11;2.13;99.62
68248;SHT30;55064;49.636;12.164;2024-02-14T06:14:36;2.17;99.14
68248;SHT30;55064;49.636;12.164;2024-02-14T06:17:01;2.21;99.04
68248;SHT30;55064;49.636;12.164;2024-02-14T06:19:27;2.22;98.88
68248;SHT30;55064;49.636;12.164;2024-02-14T06:21:53;2.21;98.73
68248;SHT30;55064;49.636;12.164;2024-02-14T06:24:21;2.26;98.61
68248;SHT30;55064;49.636;12.164;2024-02-14T06:26:46;2.32;98.32
68248;SHT30;55064;49.636;12.164;2024-02-14T06:29:12;2.34;98.36
68248;SHT30;55064;49.636;12.164;2024-02-14T06:31:37;2.34;98.44
68248;SHT30;55064;49.636;12.164;2024-02-14T06:34:03;2.34;98.22
68248;SHT30;55064;49.636;12.164;2024-02-14T06:36:30;2.31;98.29
68248;SHT30;55064;49.636;12.164;2024-02-14T06:38:55;2.35;98.47
68248;SHT30;55064;49.636;12.164;2024-02-14T06:41:21;2.28;98.53
68248;SHT30;55064;49.636;12.164;2024-02-14T06:43:46;2.34;98.54
68248;SHT30;55064;49.636;12.164;2024-02-14T06:46:12;2.38;98.48
68248;SHT30;55064;49.636;12.164;2024-02-14T06:48:38;2.38;98.49
68248;SHT30;55064;49.636;12.164;2024-02-14T06:51:06;2.41;98.39
68248;SHT30;55064;49.636;12.164;2024-02-14T06:53:32;2.46;98.24
68248;SHT30;55064;49.636;12.164;2024-02-14T06:55:57;2.49;97.93
68248;SHT30;55064;49.636;12.164;2024-02-14T06:58:22;2.52;97.92
68248;SHT30;55064;49.636;12.164;2024-02-14T07:00:48;2.56;98.02
68248;SHT30;55064;49.636;12.164;2024-02-14T07:03:13;2.59;98.00
68248;SHT30;55064;49.636;12.164;2024-02-14T07:05:38;2.67;97.44
68248;SHT30;55064;49.636;12.164;2024-02-14T07:08:04;2.66;97.36
68248;SHT30;55064;49.636;12.164;2024-02-14T07:10:30;2.70;97.19
68248;SHT30;55064;49.636;12.164;2024-02-14T07:12:55;2.72;97.44
68248;SHT30;55064;49.636;12.164;2024-02-14T07:15:21;2.73;97.63
68248;SHT30;55064;49.636;12.164;2024-02-14T07:17:46;2.77;97.34
68248;SHT30;55064;49.636;12.164;2024-02-14T07:20:11;2.76;97.21
68248;SHT30;55064;49.636;12.164;2024-02-14T07:22:37;2.79;97.18
68248;SHT30;55064;49.636;12.164;2024-02-14T07:25:03;2.83;96.97
68248;SHT30;55064;49.636;12.164;2024-02-14T07:27:30;2.83;96.92
68248;SHT30;55064;49.636;12.164;2024-02-14T07:29:55;2.81;96.92
68248;SHT30;55064;49.636;12.164;2024-02-14T07:32:21;2.86;96.69
68248;SHT30;55064;49.636;12.164;2024-02-14T07:34:47;2.86;96.64
68248;SHT30;55064;49.636;12.164;2024-02-14T07:37:12;2.86;96.73
68248;SHT30;55064;49.636;12.164;2024-02-14T07:39:38;2.86;96.43
68248;SHT30;55064;49.636;12.164;2024-02-14T07:42:04;2.90;96.59
68248;SHT30;55064;49.636;12.164;2024-02-14T07:44:30;2.97;96.59
68248;SHT30;55064;49.636;12.164;2024-02-14T07:46:56;2.99;96.29
68248;SHT30;55064;49.636;12.164;2024-02-14T07:49:21;3.01;96.20
68248;SHT30;55064;49.636;12.164;2024-02-14T07:51:46;3.03;96.01
68248;SHT30;55064;49.636;12.164;2024-02-14T07:54:12;3.10;96.40
68248;SHT30;55064;49.636;12.164;2024-02-14T07:56:37;3.15;95.97
68248;SHT30;55064;49.636;12.164;2024-02-14T07:59:03;3.19;95.84
68248;SHT30;55064;49.636;12.164;2024-02-14T08:01:30;3.22;95.64
68248;SHT30;55064;49.636;12.164;2024-02-14T08:03:56;3.28;95.49
68248;SHT30;55064;49.636;12.164;2024-02-14T08:06:21;3.29;95.49
68248;SHT30;55064;49.636;12.164;2024-02-14T08:08:46;3.35;95.52
68248;SHT30;55064;49.636;12.164;2024-02-14T08:11:16;3.38;95.43
68248;SHT30;55064;49.636;12.164;2024-02-14T08:13:42;3.48;95.43
68248;SHT30;55064;49.636;12.164;2024-02-14T08:16:08;3.51;94.99
68248;SHT30;55064;49.636;12.164;2024-02-14T08:18:33;3.43;94.88
68248;SHT30;55064;49.636;12.164;2024-02-14T08:20:59;3.38;94.94
68248;SHT30;55064;49.636;12.164;2024-02-14T08:23:24;3.45;94.88
68248;SHT30;55064;49.636;12.164;2024-02-14T08:25:50;3.49;95.10
68248;SHT30;55064;49.636;12.164;2024-02-14T08:28:15;3.60;95.28
68248;SHT30;55064;49.636;12.164;2024-02-14T08:30:43;3.66;95.02
68248;SHT30;55064;49.636;12.164;2024-02-14T08:33:09;3.76;94.68
68248;SHT30;55064;49.636;12.164;2024-02-14T08:35:36;3.86;94.44
68248;SHT30;55064;49.636;12.164;2024-02-14T08:38:01;3.93;94.44
68248;SHT30;55064;49.636;12.164;2024-02-14T08:40:26;3.89;93.71
68248;SHT30;55064;49.636;12.164;2024-02-14T08:42:52;3.93;94.23
68248;SHT30;55064;49.636;12.164;2024-02-14T08:45:17;3.97;94.34
68248;SHT30;55064;49.636;12.164;2024-02-14T08:47:43;3.97;94.51
68248;SHT30;55064;49.636;12.164;2024-02-14T08:50:09;4.05;94.13
68248;SHT30;55064;49.636;12.164;2024-02-14T08:52:35;4.05;93.53
68248;SHT30;55064;49.636;12.164;2024-02-14T08:55:01;4.18;93.45
68248;SHT30;55064;49.636;12.164;2024-02-14T08:57:26;4.20;93.28
68248;SHT30;55064;49.636;12.164;2024-02-14T08:59:52;4.25;92.97
68248;SHT30;55064;49.636;12.164;2024-02-14T09:02:18;4.21;92.69
68248;SHT30;55064;49.636;12.164;2024-02-14T09:04:44;4.18;92.88
68248;SHT30;55064;49.636;12.164;2024-02-14T09:07:10;4.25;93.04
68248;SHT30;55064;49.636;12.164;2024-02-14T09:09:35;4.31;92.83
68248;SHT30;55064;49.636;12.164;2024-02-14T09:12:02;4.34;91.85
68248;SHT30;55064;49.636;12.164;2024-02-14T09:14:31;4.29;91.89
68248;SHT30;55064;49.636;12.164;2024-02-14T09:16:56;4.32;92.23
68248;SHT30;55064;49.636;12.164;2024-02-14T09:19:23;4.34;92.16
68248;SHT30;55064;49.636;12.164;2024-02-14T09:21:48;4.39;91.99
68248;SHT30;55064;49.636;12.164;2024-02-14T09:24:13;4.45;92.30
68248;SHT30;55064;49.636;12.164;2024-02-14T09:26:39;4.37;91.82
68248;SHT30;55064;49.636;12.164;2024-02-14T09:29:04;4.24;92.17
68248;SHT30;55064;49.636;12.164;2024-02-14T09:31:30;4.35;92.20
68248;SHT30;55064;49.636;12.164;2024-02-14T09:33:56;4.29;92.48
68248;SHT30;55064;49.636;12.164;2024-02-14T09:36:23;4.29;92.84
68248;SHT30;55064;49.636;12.164;2024-02-14T09:38:49;4.27;92.44
68248;SHT30;55064;49.636;12.164;2024-02-14T09:41:29;4.27;92.50
68248;SHT30;55064;49.636;12.164;2024-02-14T09:43:56;4.35;92.12
68248;SHT30;55064;49.636;12.164;2024-02-14T09:46:24;4.44;92.35
68248;SHT30;55064;49.636;12.164;2024-02-14T09:48:53;4.45;91.91
68248;SHT30;55064;49.636;12.164;2024-02-14T09:51:20;4.56;91.94
68248;SHT30;55064;49.636;12.164;2024-02-14T09:53:46;4.60;91.73
68248;SHT30;55064;49.636;12.164;2024-02-14T09:56:12;4.66;92.62
68248;SHT30;55064;49.636;12.164;2024-02-14T09:58:40;4.70;93.37
68248;SHT30;55064;49.636;12.164;2024-02-14T10:01:06;4.49;94.02
68248;SHT30;55064;49.636;12.164;2024-02-14T10:03:33;4.50;94.86
68248;SHT30;55064;49.636;12.164;2024-02-14T10:05:59;4.46;95.49
68248;SHT30;55064;49.636;12.164;2024-02-14T10:08:25;4.56;95.75
68248;SHT30;55064;49.636;12.164;2024-02-14T10:10:51;4.56;95.18
68248;SHT30;55064;49.636;12.164;2024-02-14T10:13:17;4.66;94.99
68248;SHT30;55064;49.636;12.164;2024-02-14T10:15:42;4.69;95.17
68248;SHT30;55064;49.636;12.164;2024-02-14T10:18:08;4.73;94.56
68248;SHT30;55064;49.636;12.164;2024-02-14T10:20:35;4.81;94.83
68248;SHT30;55064;49.636;12.164;2024-02-14T10:23:10;4.90;94.68
68248;SHT30;55064;49.636;12.164;2024-02-14T10:25:35;5.03;95.14
68248;SHT30;55064;49.636;12.164;2024-02-14T10:28:05;5.07;95.07
68248;SHT30;55064;49.636;12.164;2024-02-14T10:30:35;5.17;95.71
68248;SHT30;55064;49.636;12.164;2024-02-14T10:33:02;5.24;95.67
68248;SHT30;55064;49.636;12.164;2024-02-14T10:35:30;5.32;94.22
68248;SHT30;55064;49.636;12.164;2024-02-14T10:37:58;5.38;92.91
68248;SHT30;55064;49.636;12.164;2024-02-14T10:40:27;5.45;93.08
68248;SHT30;55064;49.636;12.164;2024-02-14T10:42:53;5.48;93.09
68248;SHT30;55064;49.636;12.164;2024-02-14T10:45:20;5.58;93.27
68248;SHT30;55064;49.636;12.164;2024-02-14T10:47:47;5.58;93.12
68248;SHT30;55064;49.636;12.164;2024-02-14T10:50:15;5.65;93.71
68248;SHT30;55064;49.636;12.164;2024-02-14T10:52:41;5.70;92.56
68248;SHT30;55064;49.636;12.164;2024-02-14T10:55:07;5.66;91.83
68248;SHT30;55064;49.636;12.164;2024-02-14T10:57:34;5.63;92.39
68248;SHT30;55064;49.636;12.164;2024-02-14T11:00:02;5.63;92.55
68248;SHT30;55064;49.636;12.164;2024-02-14T11:02:28;5.58;92.81
68248;SHT30;55064;49.636;12.164;2024-02-14T11:04:56;5.56;92.82
68248;SHT30;55064;49.636;12.164;2024-02-14T11:07:22;5.58;93.08
68248;SHT30;55064;49.636;12.164;2024-02-14T11:09:48;5.53;93.42
68248;SHT30;55064;49.636;12.164;2024-02-14T11:12:25;5.43;92.96
68248;SHT30;55064;49.636;12.164;2024-02-14T11:14:50;5.46;93.44
68248;SHT30;55064;49.636;12.164;2024-02-14T11:17:19;5.45;93.04
68248;SHT30;55064;49.636;12.164;2024-02-14T11:19:49;5.55;93.55
68248;SHT30;55064;49.636;12.164;2024-02-14T11:22:20;5.55;93.57
68248;SHT30;55064;49.636;12.164;2024-02-14T11:24:47;5.56;94.12
68248;SHT30;55064;49.636;12.164;2024-02-14T11:27:13;5.63;93.36
68248;SHT30;55064;49.636;12.164;2024-02-14T11:29:40;5.70;93.06
68248;SHT30;55064;49.636;12.164;2024-02-14T11:32:07;5.79;93.54
68248;SHT30;55064;49.636;12.164;2024-02-14T11:34:34;5.86;93.31
68248;SHT30;55064;49.636;12.164;2024-02-14T11:37:00;5.96;93.21
68248;SHT30;55064;49.636;12.164;2024-02-14T11:39:25;5.98;93.11
68248;SHT30;55064;49.636;12.164;2024-02-14T11:41:51;6.08;93.21
68248;SHT30;55064;49.636;12.164;2024-02-14T11:44:19;6.10;92.61
68248;SHT30;55064;49.636;12.164;2024-02-14T11:46:47;6.04;92.28
68248;SHT30;55064;49.636;12.164;2024-02-14T11:49:12;6.11;92.71
68248;SHT30;55064;49.636;12.164;2024-02-14T11:51:38;6.07;92.54
68248;SHT30;55064;49.636;12.164;2024-02-14T11:54:05;6.14;92.40
68248;SHT30;55064;49.636;12.164;2024-02-14T11:56:32;6.17;92.44
68248;SHT30;55064;49.636;12.164;2024-02-14T11:59:05;6.24;92.41
68248;SHT30;55064;49.636;12.164;2024-02-14T12:01:31;6.26;92.74
68248;SHT30;55064;49.636;12.164;2024-02-14T12:04:01;6.20;92.29
68248;SHT30;55064;49.636;12.164;2024-02-14T12:06:31;6.21;92.56
68248;SHT30;55064;49.636;12.164;2024-02-14T12:08:57;6.22;92.66
68248;SHT30;55064;49.636;12.164;2024-02-14T12:11:27;6.26;93.31
68248;SHT30;55064;49.636;12.164;2024-02-14T12:13:53;6.28;92.74
68248;SHT30;55064;49.636;12.164;2024-02-14T12:16:21;6.28;93.10
68248;SHT30;55064;49.636;12.164;2024-02-14T12:18:47;6.34;93.16
68248;SHT30;55064;49.636;12.164;2024-02-14T12:21:14;6.38;93.04
68248;SHT30;55064;49.636;12.164;2024-02-14T12:23:39;6.42;92.90
68248;SHT30;55064;49.636;12.164;2024-02-14T12:26:05;6.48;92.89
68248;SHT30;55064;49.636;12.164;2024-02-14T12:28:31;6.50;92.50
68248;SHT30;55064;49.636;12.164;2024-02-14T12:30:57;6.55;92.46
68248;SHT30;55064;49.636;12.164;2024-02-14T12:33:26;6.62;92.71
68248;SHT30;55064;49.636;12.164;2024-02-14T12:35:56;6.76;92.86
68248;SHT30;55064;49.636;12.164;2024-02-14T12:38:23;6.72;93.24
68248;SHT30;55064;49.636;12.164;2024-02-14T12:40:49;6.77;94.05
68248;SHT30;55064;49.636;12.164;2024-02-14T12:43:15;6.75;94.22
68248;SHT30;55064;49.636;12.164;2024-02-14T12:45:44;6.77;94.85
68248;SHT30;55064;49.636;12.164;2024-02-14T12:48:10;6.76;94.46
68248;SHT30;55064;49.636;12.164;2024-02-14T12:50:39;6.81;94.95
68248;SHT30;55064;49.636;12.164;2024-02-14T12:53:06;6.81;94.37
68248;SHT30;55064;49.636;12.164;2024-02-14T12:55:48;6.79;94.42
68248;SHT30;55064;49.636;12.164;2024-02-14T12:58:15;6.83;93.57
68248;SHT30;55064;49.636;12.164;2024-02-14T13:00:41;6.93;93.77
68248;SHT30;55064;49.636;12.164;2024-02-14T13:03:08;6.94;93.39
68248;SHT30;55064;49.636;12.164;2024-02-14T13:05:35;7.00;93.15
68248;SHT30;55064;49.636;12.164;2024-02-14T13:08:01;7.01;93.46
68248;SHT30;55064;49.636;12.164;2024-02-14T13:10:27;7.07;93.02
68248;SHT30;55064;49.636;12.164;2024-02-14T13:12:52;7.05;93.13
68248;SHT30;55064;49.636;12.164;2024-02-14T13:15:17;7.05;92.87
68248;SHT30;55064;49.636;12.164;2024-02-14T13:17:43;7.08;93.26
68248;SHT30;55064;49.636;12.164;2024-02-14T13:20:10;7.07;92.84
68248;SHT30;55064;49.636;12.164;2024-02-14T13:22:36;7.11;93.17
68248;SHT30;55064;49.636;12.164;2024-02-14T13:25:02;7.07;92.66
68248;SHT30;55064;49.636;12.164;2024-02-14T13:27:28;7.05;92.29
68248;SHT30;55064;49.636;12.164;2024-02-14T13:29:53;7.08;92.66
68248;SHT30;55064;49.636;12.164;2024-02-14T13:32:19;7.14;92.55
68248;SHT30;55064;49.636;12.164;2024-02-14T13:34:45;7.11;91.67
68248;SHT30;55064;49.636;12.164;2024-02-14T13:37:11;7.14;91.87
68248;SHT30;55064;49.636;12.164;2024-02-14T13:39:36;7.14;91.51
68248;SHT30;55064;49.636;12.164;2024-02-14T13:42:02;7.15;91.90
68248;SHT30;55064;49.636;12.164;2024-02-14T13:44:33;7.12;91.59
68248;SHT30;55064;49.636;12.164;2024-02-14T13:46:58;7.21;91.49
68248;SHT30;55064;49.636;12.164;2024-02-14T13:49:24;7.24;91.62
68248;SHT30;55064;49.636;12.164;2024-02-14T13:51:51;7.18;91.24
68248;SHT30;55064;49.636;12.164;2024-02-14T13:54:20;7.18;91.53
68248;SHT30;55064;49.636;12.164;2024-02-14T13:56:46;7.21;91.58
68248;SHT30;55064;49.636;12.164;2024-02-14T13:59:13;7.27;92.27
68248;SHT30;55064;49.636;12.164;2024-02-14T14:01:39;7.31;91.30
68248;SHT30;55064;49.636;12.164;2024-02-14T14:04:04;7.28;91.04
68248;SHT30;55064;49.636;12.164;2024-02-14T14:06:31;7.34;91.53
68248;SHT30;55064;49.636;12.164;2024-02-14T14:08:58;7.39;91.24
68248;SHT30;55064;49.636;12.164;2024-02-14T14:11:24;7.42;91.70
68248;SHT30;55064;49.636;12.164;2024-02-14T14:13:50;7.49;91.35
68248;SHT30;55064;49.636;12.164;2024-02-14T14:16:16;7.56;91.53
68248;SHT30;55064;49.636;12.164;2024-02-14T14:18:42;7.70;91.47
68248;SHT30;55064;49.636;12.164;2024-02-14T14:21:09;7.77;91.21
68248;SHT30;55064;49.636;12.164;2024-02-14T14:23:34;7.80;91.24
68248;SHT30;55064;49.636;12.164;2024-02-14T14:26:00;7.76;91.09
68248;SHT30;55064;49.636;12.164;2024-02-14T14:28:26;7.82;91.75
68248;SHT30;55064;49.636;12.164;2024-02-14T14:30:53;7.79;91.82
68248;SHT30;55064;49.636;12.164;2024-02-14T14:33:19;7.83;92.07
68248;SHT30;55064;49.636;12.164;2024-02-14T14:35:45;7.82;91.77
68248;SHT30;55064;49.636;12.164;2024-02-14T14:38:10;7.89;92.02
68248;SHT30;55064;49.636;12.164;2024-02-14T14:40:36;7.90;92.06
68248;SHT30;55064;49.636;12.164;2024-02-14T14:43:03;7.95;91.52
68248;SHT30;55064;49.636;12.164;2024-02-14T14:45:28;7.93;91.92
68248;SHT30;55064;49.636;12.164;2024-02-14T14:47:54;7.87;91.94
68248;SHT30;55064;49.636;12.164;2024-02-14T14:50:19;7.79;91.94
68248;SHT30;55064;49.636;12.164;2024-02-14T14:52:46;7.77;92.20
68248;SHT30;55064;49.636;12.164;2024-02-14T14:55:12;7.77;92.23
68248;SHT30;55064;49.636;12.164;2024-02-14T14:57:37;7.76;92.02
68248;SHT30;55064;49.636;12.164;2024-02-14T15:00:08;7.73;91.39
68248;SHT30;55064;49.636;12.164;2024-02-14T15:02:43;7.73;92.01
68248;SHT30;55064;49.636;12.164;2024-02-14T15:05:12;7.72;91.98
68248;SHT30;55064;49.636;12.164;2024-02-14T15:07:38;7.77;92.26
68248;SHT30;55064;49.636;12.164;2024-02-14T15:10:07;7.74;91.84
68248;SHT30;55064;49.636;12.164;2024-02-14T15:12:54;7.77;92.28
68248;SHT30;55064;49.636;12.164;2024-02-14T15:15:20;7.77;92.23
68248;SHT30;55064;49.636;12.164;2024-02-14T15:17:51;7.76;92.14
68248;SHT30;55064;49.636;12.164;2024-02-14T15:20:18;7.72;92.19
68248;SHT30;55064;49.636;12.164;2024-02-14T15:22:43;7.69;92.10
68248;SHT30;55064;49.636;12.164;2024-02-14T15:25:10;7.67;92.25